Time;durP1;ratioP1;P1;durP2;ratioP2;P2;SDS_P1;SDS_P2;PMS_P1;PMS_P2;Temp;Humidity;BMP_temperature;BMP_pressure;BME280_temperature;BME280_humidity;BME280_pressure;Samples;Min_cycle;Max_cycle;Signal;HPM_P1;HPM_P2
2023/06/25 00:00:18;;;;;;;11.45;7.38;;;;;;;;;;5012769;28;20045;-59
2023/06/25 00:02:47;;;;;;;13.30;7.50;;;;;;;;;;5014207;28;20041;-59
2023/06/25 00:05:13;;;;;;;11.02;6.78;;;;;;;;;;5012369;28;20328;-59
2023/06/25 00:07:40;;;;;;;13.20;7.07;;;;;;;;;;5011804;28;20037;-60
2023/06/25 00:10:07;;;;;;;11.55;6.45;;;;;;;;;;5013085;28;20057;-59
2023/06/25 00:12:33;;;;;;;16.63;7.47;;;;;;;;;;5013287;28;20060;-59
2023/06/25 00:14:59;;;;;;;12.52;7.50;;;;;;;;;;5011566;28;20053;-60
2023/06/25 00:17:27;;;;;;;12.35;7.25;;;;;;;;;;5007142;28;20049;-60
2023/06/25 00:19:54;;;;;;;10.07;7.18;;;;;;;;;;5006916;28;20041;-59
2023/06/25 00:22:21;;;;;;;11.85;7.55;;;;;;;;;;5011978;28;20034;-59
2023/06/25 00:24:47;;;;;;;14.52;8.00;;;;;;;;;;5008007;28;20517;-59
2023/06/25 00:27:13;;;;;;;11.15;7.38;;;;;;;;;;5007264;28;20042;-59
2023/06/25 00:29:39;;;;;;;10.50;7.22;;;;;;;;;;5008991;28;20050;-60
2023/06/25 00:32:06;;;;;;;11.10;7.38;;;;;;;;;;5011332;28;20384;-59
2023/06/25 00:34:40;;;;;;;12.30;7.45;;;;;;;;;;5009515;28;20042;-59
2023/06/25 00:37:16;;;;;;;12.18;7.13;;;;;;;;;;5006587;28;20041;-59
2023/06/25 00:39:46;;;;;;;10.25;6.97;;;;;;;;;;5013466;28;20042;-59
2023/06/25 00:42:13;;;;;;;11.43;7.07;;;;;;;;;;5006633;28;20735;-59
2023/06/25 00:44:40;;;;;;;10.25;6.80;;;;;;;;;;5008667;28;20041;-59
2023/06/25 00:47:16;;;;;;;10.77;6.63;;;;;;;;;;5009966;28;20050;-59
2023/06/25 00:49:44;;;;;;;11.30;6.68;;;;;;;;;;5009934;28;20871;-59
2023/06/25 00:52:11;;;;;;;11.48;7.03;;;;;;;;;;5010357;28;20026;-59
2023/06/25 00:54:39;;;;;;;10.30;6.63;;;;;;;;;;5005443;28;20046;-59
2023/06/25 00:57:07;;;;;;;11.07;6.67;;;;;;;;;;5009612;28;20045;-59
2023/06/25 00:59:40;;;;;;;12.00;7.15;;;;;;;;;;5009436;28;20340;-59
2023/06/25 01:02:56;;;;;;;10.25;7.00;;;;;;;;;;5010888;28;20046;-59
2023/06/25 01:05:39;;;;;;;12.50;6.85;;;;;;;;;;4970734;28;20065;-58
2023/06/25 01:08:08;;;;;;;11.85;7.15;;;;;;;;;;5009276;28;20440;-59
2023/06/25 01:10:38;;;;;;;;;;;;;;;;;;5011368;28;20642;-60
2023/06/25 01:13:05;;;;;;;13.30;7.18;;;;;;;;;;5014881;28;19920;-59
2023/06/25 01:15:31;;;;;;;11.25;7.22;;;;;;;;;;5012043;28;20036;-60
2023/06/25 01:17:59;;;;;;;12.60;7.22;;;;;;;;;;5008262;28;20029;-60
2023/06/25 01:20:27;;;;;;;10.88;6.82;;;;;;;;;;5022686;28;20415;-60
2023/06/25 01:22:57;;;;;;;11.00;7.37;;;;;;;;;;5009566;28;20040;-60
2023/06/25 01:25:24;;;;;;;13.38;7.60;;;;;;;;;;5007994;28;20077;-59
2023/06/25 01:27:50;;;;;;;12.63;7.72;;;;;;;;;;5008456;28;20527;-59
2023/06/25 01:30:18;;;;;;;13.20;7.53;;;;;;;;;;5006068;28;20403;-59
2023/06/25 01:32:44;;;;;;;14.00;7.88;;;;;;;;;;5012447;28;20057;-59
2023/06/25 01:35:12;;;;;;;15.85;7.90;;;;;;;;;;5009061;28;20480;-58
2023/06/25 01:37:38;;;;;;;11.07;7.07;;;;;;;;;;5009715;28;20034;-59
2023/06/25 01:40:08;;;;;;;11.15;8.00;;;;;;;;;;5025910;28;20042;-59
2023/06/25 01:42:35;;;;;;;14.18;7.88;;;;;;;;;;5009346;28;20045;-59
2023/06/25 01:45:02;;;;;;;11.52;7.45;;;;;;;;;;5011750;28;20404;-58
2023/06/25 01:47:30;;;;;;;13.60;8.25;;;;;;;;;;5009249;28;20050;-58
2023/06/25 01:49:56;;;;;;;13.20;8.38;;;;;;;;;;5011478;28;20372;-59
2023/06/25 01:52:22;;;;;;;13.73;7.95;;;;;;;;;;5008807;28;20037;-59
2023/06/25 01:54:49;;;;;;;13.10;8.10;;;;;;;;;;5017338;28;20054;-57
2023/06/25 01:57:15;;;;;;;12.82;8.30;;;;;;;;;;5006201;28;20045;-58
2023/06/25 01:59:41;;;;;;;15.25;8.40;;;;;;;;;;5023225;28;20054;-58
2023/06/25 02:02:07;;;;;;;12.95;8.00;;;;;;;;;;5011768;28;20056;-59
2023/06/25 02:04:33;;;;;;;12.38;7.97;;;;;;;;;;5013341;28;20049;-60
2023/06/25 02:07:00;;;;;;;12.93;8.20;;;;;;;;;;4993395;28;20042;-59
2023/06/25 02:09:26;;;;;;;14.25;7.80;;;;;;;;;;5009005;28;20050;-59
2023/06/25 02:11:52;;;;;;;15.52;8.35;;;;;;;;;;5010398;28;20041;-59
2023/06/25 02:14:18;;;;;;;12.55;7.78;;;;;;;;;;5012391;28;20041;-59
2023/06/25 02:16:44;;;;;;;13.63;8.65;;;;;;;;;;4980000;28;20061;-59
2023/06/25 02:19:10;;;;;;;23.35;10.80;;;;;;;;;;5009669;28;20045;-59
2023/06/25 02:21:37;;;;;;;22.02;12.18;;;;;;;;;;5008766;28;20045;-59
2023/06/25 02:24:06;;;;;;;17.63;9.63;;;;;;;;;;5011325;28;20037;-59
2023/06/25 02:26:32;;;;;;;14.70;8.18;;;;;;;;;;5011259;28;20054;-58
2023/06/25 02:28:58;;;;;;;13.32;8.25;;;;;;;;;;5005947;28;20041;-59
2023/06/25 02:31:24;;;;;;;13.52;8.32;;;;;;;;;;5012226;28;20037;-58
2023/06/25 02:33:51;;;;;;;13.65;8.02;;;;;;;;;;5008458;28;20435;-58
2023/06/25 02:36:17;;;;;;;13.57;7.78;;;;;;;;;;5009707;28;20036;-59
2023/06/25 02:38:43;;;;;;;13.57;8.40;;;;;;;;;;5004261;28;20060;-59
2023/06/25 02:41:09;;;;;;;15.40;8.95;;;;;;;;;;5009189;28;20371;-59
2023/06/25 02:43:35;;;;;;;16.95;8.48;;;;;;;;;;5011593;28;20045;-59
2023/06/25 02:46:02;;;;;;;17.30;9.25;;;;;;;;;;5006828;28;20052;-59
2023/06/25 02:48:28;;;;;;;14.82;8.60;;;;;;;;;;5009429;28;20052;-59
2023/06/25 02:50:54;;;;;;;20.10;9.38;;;;;;;;;;5022908;28;20411;-59
2023/06/25 02:53:20;;;;;;;18.00;9.98;;;;;;;;;;4993956;28;20041;-59
2023/06/25 02:55:47;;;;;;;16.00;9.50;;;;;;;;;;5009237;28;20041;-59
2023/06/25 02:58:13;;;;;;;15.93;9.80;;;;;;;;;;5008394;28;20053;-58
2023/06/25 03:00:39;;;;;;;17.77;9.73;;;;;;;;;;5025082;28;20076;-59
2023/06/25 03:03:06;;;;;;;14.50;9.40;;;;;;;;;;5014171;28;20488;-59
2023/06/25 03:05:33;;;;;;;16.50;9.60;;;;;;;;;;5017086;28;20419;-58
2023/06/25 03:07:59;;;;;;;17.08;9.20;;;;;;;;;;5010431;28;20030;-59
2023/06/25 03:10:30;;;;;;;16.50;9.07;;;;;;;;;;5003485;28;20057;-59
2023/06/25 03:12:57;;;;;;;23.58;10.00;;;;;;;;;;5003308;28;20054;-58
2023/06/25 03:15:23;;;;;;;17.95;9.95;;;;;;;;;;5003990;28;20038;-58
2023/06/25 03:17:49;;;;;;;17.08;9.02;;;;;;;;;;4992741;28;20034;-58
2023/06/25 03:20:16;;;;;;;16.52;9.38;;;;;;;;;;5005892;28;20109;-58
2023/06/25 03:22:42;;;;;;;18.05;9.82;;;;;;;;;;5010722;28;20037;-58
2023/06/25 03:25:09;;;;;;;18.75;9.63;;;;;;;;;;5006494;28;20100;-59
2023/06/25 03:27:38;;;;;;;16.42;9.57;;;;;;;;;;5007258;28;20041;-58
2023/06/25 03:30:05;;;;;;;18.88;9.73;;;;;;;;;;5002338;28;20050;-57
2023/06/25 03:32:32;;;;;;;17.42;10.18;;;;;;;;;;5008171;28;20492;-57
2023/06/25 03:34:59;;;;;;;18.77;10.93;;;;;;;;;;5004917;28;20034;-59
2023/06/25 03:37:26;;;;;;;16.75;9.82;;;;;;;;;;5010659;28;20056;-60
2023/06/25 03:39:52;;;;;;;18.08;9.88;;;;;;;;;;5020265;28;20042;-60
2023/06/25 03:42:18;;;;;;;17.02;9.23;;;;;;;;;;5007535;28;20125;-58
2023/06/25 03:44:51;;;;;;;16.73;9.82;;;;;;;;;;5009977;28;20072;-59
2023/06/25 03:47:20;;;;;;;19.02;9.98;;;;;;;;;;5006446;28;20045;-59
2023/06/25 03:49:46;;;;;;;19.20;9.60;;;;;;;;;;5026208;28;20396;-59
2023/06/25 03:52:14;;;;;;;18.67;9.98;;;;;;;;;;5003587;28;20042;-58
2023/06/25 03:54:41;;;;;;;21.88;10.27;;;;;;;;;;4994636;28;20038;-60
2023/06/25 03:57:07;;;;;;;21.13;10.93;;;;;;;;;;4996298;28;20038;-58
2023/06/25 03:59:34;;;;;;;19.25;10.63;;;;;;;;;;5006239;28;20047;-59
2023/06/25 04:02:00;;;;;;;20.35;10.95;;;;;;;;;;5014363;28;20037;-60
2023/06/25 04:04:26;;;;;;;17.52;10.13;;;;;;;;;;5005668;28;20148;-58
2023/06/25 04:06:53;;;;;;;19.95;11.07;;;;;;;;;;5008864;28;20042;-59
2023/06/25 04:09:20;;;;;;;19.63;10.45;;;;;;;;;;5011123;28;20034;-59
2023/06/25 04:11:46;;;;;;;19.20;10.48;;;;;;;;;;5008660;28;20045;-59
2023/06/25 04:14:13;;;;;;;22.85;10.68;;;;;;;;;;5008982;28;20044;-59
2023/06/25 04:16:39;;;;;;;20.42;10.98;;;;;;;;;;5016091;28;20065;-58
2023/06/25 04:19:06;;;;;;;22.55;11.30;;;;;;;;;;4992875;28;20030;-59
2023/06/25 04:21:34;;;;;;;23.30;11.00;;;;;;;;;;5011163;28;20109;-59
2023/06/25 04:24:01;;;;;;;21.40;10.52;;;;;;;;;;5009080;28;20041;-59
2023/06/25 04:26:28;;;;;;;19.50;10.48;;;;;;;;;;5003126;28;20111;-58
2023/06/25 04:28:54;;;;;;;20.10;11.18;;;;;;;;;;5005676;28;20521;-58
2023/06/25 04:31:23;;;;;;;21.42;11.52;;;;;;;;;;5004208;28;20510;-59
2023/06/25 04:33:51;;;;;;;20.42;10.52;;;;;;;;;;5004406;28;20038;-59
2023/06/25 04:36:18;;;;;;;22.50;11.10;;;;;;;;;;5006072;28;20048;-58
2023/06/25 04:38:44;;;;;;;23.30;11.10;;;;;;;;;;5005071;28;20050;-59
2023/06/25 04:41:11;;;;;;;21.70;10.93;;;;;;;;;;5012125;28;20056;-58
2023/06/25 04:43:37;;;;;;;21.10;10.45;;;;;;;;;;5011066;28;20172;-59
2023/06/25 04:46:03;;;;;;;20.63;11.30;;;;;;;;;;5013617;28;20381;-58
2023/06/25 04:48:29;;;;;;;21.10;11.15;;;;;;;;;;5010007;28;20033;-58
2023/06/25 04:50:55;;;;;;;23.65;11.27;;;;;;;;;;5017615;28;20060;-58
2023/06/25 04:53:21;;;;;;;20.70;10.90;;;;;;;;;;5008588;28;20044;-58
2023/06/25 04:55:47;;;;;;;20.65;10.85;;;;;;;;;;5008890;28;20034;-59
2023/06/25 04:58:13;;;;;;;20.55;10.65;;;;;;;;;;5008654;28;20036;-58
2023/06/25 05:00:40;;;;;;;20.60;10.77;;;;;;;;;;5010679;28;20445;-59
2023/06/25 05:03:06;;;;;;;23.95;10.98;;;;;;;;;;5012246;28;20037;-59
2023/06/25 05:05:32;;;;;;;25.40;13.68;;;;;;;;;;5015649;28;20030;-58
2023/06/25 05:07:58;;;;;;;23.73;12.30;;;;;;;;;;5015061;28;20033;-59
2023/06/25 05:10:24;;;;;;;20.67;11.57;;;;;;;;;;5009669;28;20030;-59
2023/06/25 05:12:50;;;;;;;21.38;11.82;;;;;;;;;;5010987;28;20033;-60
2023/06/25 05:15:17;;;;;;;22.30;11.95;;;;;;;;;;5010250;28;20054;-59
2023/06/25 05:17:43;;;;;;;24.90;12.30;;;;;;;;;;5007174;28;20054;-59
2023/06/25 05:20:10;;;;;;;23.55;12.65;;;;;;;;;;5011009;28;20034;-58
2023/06/25 05:22:36;;;;;;;22.88;13.02;;;;;;;;;;5020364;28;20034;-59
2023/06/25 05:25:02;;;;;;;21.65;11.80;;;;;;;;;;5008014;28;20041;-59
2023/06/25 05:27:29;;;;;;;24.77;12.75;;;;;;;;;;5008954;28;20045;-58
2023/06/25 05:29:55;;;;;;;28.77;13.43;;;;;;;;;;5009163;28;20049;-59
2023/06/25 05:32:21;;;;;;;28.92;14.02;;;;;;;;;;5009320;28;20050;-58
2023/06/25 05:34:48;;;;;;;25.85;13.40;;;;;;;;;;5009364;28;20057;-58
2023/06/25 05:37:14;;;;;;;32.25;14.38;;;;;;;;;;5009465;28;20042;-59
2023/06/25 05:39:40;;;;;;;25.83;14.10;;;;;;;;;;5008191;28;20046;-58
2023/06/25 05:42:06;;;;;;;31.30;15.32;;;;;;;;;;5010163;28;20060;-58
2023/06/25 05:44:32;;;;;;;29.77;15.13;;;;;;;;;;5009323;28;20050;-58
2023/06/25 05:46:58;;;;;;;31.30;15.80;;;;;;;;;;5010862;28;20053;-59
2023/06/25 05:49:24;;;;;;;34.38;14.90;;;;;;;;;;5009294;28;20041;-59
2023/06/25 05:51:51;;;;;;;30.02;14.75;;;;;;;;;;5007501;28;20034;-57
2023/06/25 05:54:17;;;;;;;27.02;13.90;;;;;;;;;;5006264;28;20522;-58
2023/06/25 05:56:43;;;;;;;31.55;15.23;;;;;;;;;;5005934;28;20114;-58
2023/06/25 05:59:09;;;;;;;29.63;14.30;;;;;;;;;;5007909;28;20061;-58
2023/06/25 06:01:37;;;;;;;28.95;14.70;;;;;;;;;;5008717;28;20042;-58
2023/06/25 06:04:06;;;;;;;27.85;14.68;;;;;;;;;;5010510;28;20034;-59
2023/06/25 06:06:33;;;;;;;25.80;13.63;;;;;;;;;;5008824;28;20049;-58
2023/06/25 06:08:59;;;;;;;32.17;15.02;;;;;;;;;;5011037;28;20041;-58
2023/06/25 06:11:27;;;;;;;30.77;14.70;;;;;;;;;;5009032;28;20030;-59
2023/06/25 06:13:53;;;;;;;25.83;13.53;;;;;;;;;;5007869;28;20060;-59
2023/06/25 06:16:20;;;;;;;26.33;15.18;;;;;;;;;;5007954;28;20061;-58
2023/06/25 06:18:46;;;;;;;25.08;13.32;;;;;;;;;;5010591;28;20554;-59
2023/06/25 06:21:12;;;;;;;29.88;12.48;;;;;;;;;;5010108;28;20070;-58
2023/06/25 06:23:38;;;;;;;20.65;11.70;;;;;;;;;;5014345;28;20054;-59
2023/06/25 06:26:04;;;;;;;15.45;8.57;;;;;;;;;;5013872;28;20411;-58
2023/06/25 06:28:30;;;;;;;12.98;7.90;;;;;;;;;;5009057;28;20053;-58
2023/06/25 06:30:56;;;;;;;19.75;9.70;;;;;;;;;;5009157;28;20042;-59
2023/06/25 06:33:22;;;;;;;14.95;8.70;;;;;;;;;;5006472;28;20038;-59
2023/06/25 06:35:48;;;;;;;14.45;9.02;;;;;;;;;;5006612;28;20057;-58
2023/06/25 06:38:15;;;;;;;16.10;8.57;;;;;;;;;;5009309;28;20034;-59
2023/06/25 06:40:41;;;;;;;14.75;7.97;;;;;;;;;;5009458;28;20077;-59
2023/06/25 06:43:07;;;;;;;14.95;8.68;;;;;;;;;;5008211;28;20074;-58
2023/06/25 06:45:33;;;;;;;12.77;7.65;;;;;;;;;;5006520;28;20045;-59
2023/06/25 06:47:59;;;;;;;12.70;8.13;;;;;;;;;;5012708;28;20041;-58
2023/06/25 06:50:26;;;;;;;11.05;7.22;;;;;;;;;;5007205;28;20045;-59
2023/06/25 06:52:52;;;;;;;11.98;7.75;;;;;;;;;;5007352;28;20034;-59
2023/06/25 06:55:18;;;;;;;14.45;8.10;;;;;;;;;;5007746;28;20060;-59
2023/06/25 06:57:46;;;;;;;12.30;7.75;;;;;;;;;;5011878;28;20415;-59
2023/06/25 07:00:13;;;;;;;13.43;7.43;;;;;;;;;;5012294;28;20046;-60
2023/06/25 07:02:39;;;;;;;11.93;8.18;;;;;;;;;;5007228;28;20050;-60
2023/06/25 07:05:06;;;;;;;12.85;7.70;;;;;;;;;;5007221;28;20037;-59
2023/06/25 07:07:32;;;;;;;19.42;7.70;;;;;;;;;;5013702;28;20036;-59
2023/06/25 07:09:58;;;;;;;11.93;7.75;;;;;;;;;;5006192;28;20355;-59
2023/06/25 07:12:24;;;;;;;13.50;7.22;;;;;;;;;;5006414;28;20038;-57
2023/06/25 07:14:50;;;;;;;12.63;7.88;;;;;;;;;;5010290;28;20038;-57
2023/06/25 07:17:16;;;;;;;12.23;7.35;;;;;;;;;;5007951;28;20063;-58
2023/06/25 07:19:43;;;;;;;12.35;7.85;;;;;;;;;;5008401;28;20065;-59
2023/06/25 07:22:09;;;;;;;12.43;8.48;;;;;;;;;;5009243;28;20471;-59
2023/06/25 07:24:35;;;;;;;14.73;8.02;;;;;;;;;;5009712;28;20793;-58
2023/06/25 07:27:01;;;;;;;12.90;7.82;;;;;;;;;;5007213;28;20029;-59
2023/06/25 07:29:28;;;;;;;10.80;7.63;;;;;;;;;;5010547;28;20034;-58
2023/06/25 07:31:54;;;;;;;11.43;7.55;;;;;;;;;;5006945;28;20492;-57
2023/06/25 07:34:21;;;;;;;10.55;7.40;;;;;;;;;;5007294;28;20040;-58
2023/06/25 07:36:47;;;;;;;10.38;7.80;;;;;;;;;;5008720;28;20502;-58
2023/06/25 07:39:24;;;;;;;11.55;7.50;;;;;;;;;;5006613;28;20488;-57
2023/06/25 07:41:51;;;;;;;11.93;7.50;;;;;;;;;;5010246;28;20053;-59
2023/06/25 07:44:17;;;;;;;12.63;7.80;;;;;;;;;;5010585;28;20049;-58
2023/06/25 07:46:43;;;;;;;12.73;8.15;;;;;;;;;;5006306;28;20042;-58
2023/06/25 07:49:09;;;;;;;12.80;7.40;;;;;;;;;;5010458;28;20054;-58
2023/06/25 07:51:35;;;;;;;9.38;7.00;;;;;;;;;;5002498;28;20137;-59
2023/06/25 07:54:01;;;;;;;12.63;8.13;;;;;;;;;;5013349;28;20387;-58
2023/06/25 07:56:27;;;;;;;9.85;7.10;;;;;;;;;;5004757;28;20054;-59
2023/06/25 07:58:53;;;;;;;13.13;7.72;;;;;;;;;;5008668;28;20057;-58
2023/06/25 08:01:20;;;;;;;8.50;6.68;;;;;;;;;;5009409;28;20048;-58
2023/06/25 08:03:46;;;;;;;10.88;7.70;;;;;;;;;;5009030;28;20416;-58
2023/06/25 08:06:12;;;;;;;12.43;6.20;;;;;;;;;;5006850;28;20056;-58
2023/06/25 08:08:38;;;;;;;9.48;6.07;;;;;;;;;;5012503;28;20041;-58
2023/06/25 08:11:05;;;;;;;8.65;6.35;;;;;;;;;;5004196;28;20056;-59
2023/06/25 08:13:31;;;;;;;13.02;6.30;;;;;;;;;;5007600;28;20406;-59
2023/06/25 08:15:57;;;;;;;8.93;5.78;;;;;;;;;;5009776;28;20052;-57
2023/06/25 08:18:23;;;;;;;7.85;5.45;;;;;;;;;;5010887;28;20061;-58
2023/06/25 08:20:49;;;;;;;8.43;6.00;;;;;;;;;;5012310;28;20037;-58
2023/06/25 08:23:15;;;;;;;9.77;6.53;;;;;;;;;;5015566;28;20038;-58
2023/06/25 08:25:42;;;;;;;11.57;6.95;;;;;;;;;;5017941;28;20042;-59
2023/06/25 08:28:08;;;;;;;11.05;6.38;;;;;;;;;;5011298;28;20042;-59
2023/06/25 08:30:34;;;;;;;10.15;6.97;;;;;;;;;;5017655;28;20412;-57
2023/06/25 08:33:00;;;;;;;10.38;6.38;;;;;;;;;;5010491;28;20029;-58
2023/06/25 08:35:26;;;;;;;10.90;6.82;;;;;;;;;;5021315;28;20505;-59
2023/06/25 08:37:52;;;;;;;9.73;5.38;;;;;;;;;;5012977;28;20053;-60
2023/06/25 08:40:19;;;;;;;9.15;6.20;;;;;;;;;;5021440;28;20052;-59
2023/06/25 08:42:45;;;;;;;10.80;7.43;;;;;;;;;;5013384;28;20025;-58
2023/06/25 08:45:11;;;;;;;11.88;7.55;;;;;;;;;;5013935;28;20419;-59
2023/06/25 08:47:39;;;;;;;10.18;6.85;;;;;;;;;;5012644;28;20050;-59
2023/06/25 08:50:07;;;;;;;10.20;6.15;;;;;;;;;;5010388;28;20503;-59
2023/06/25 08:52:34;;;;;;;10.68;6.25;;;;;;;;;;5006610;28;20049;-59
2023/06/25 08:55:00;;;;;;;9.52;6.32;;;;;;;;;;5004861;28;20428;-58
2023/06/25 08:57:27;;;;;;;8.93;6.20;;;;;;;;;;5011757;28;20037;-58
2023/06/25 08:59:53;;;;;;;10.95;6.47;;;;;;;;;;5010586;28;20038;-59
2023/06/25 09:02:19;;;;;;;13.00;7.30;;;;;;;;;;5013394;28;20045;-59
2023/06/25 09:04:48;;;;;;;10.68;7.30;;;;;;;;;;5012483;28;20559;-59
2023/06/25 09:07:19;;;;;;;11.00;7.10;;;;;;;;;;5016303;28;20046;-58
2023/06/25 09:09:54;;;;;;;10.23;6.97;;;;;;;;;;5014379;28;20034;-57
2023/06/25 09:12:24;;;;;;;11.13;7.00;;;;;;;;;;5014287;28;20065;-58
2023/06/25 09:14:51;;;;;;;13.02;8.20;;;;;;;;;;5012367;28;20045;-58
2023/06/25 09:17:23;;;;;;;13.70;7.47;;;;;;;;;;5014826;28;20121;-58
2023/06/25 09:19:51;;;;;;;10.80;6.60;;;;;;;;;;5011008;28;20048;-59
2023/06/25 09:22:17;;;;;;;11.38;6.85;;;;;;;;;;5027558;28;20042;-58
2023/06/25 09:24:46;;;;;;;11.93;7.60;;;;;;;;;;5010571;28;20662;-59
2023/06/25 09:27:12;;;;;;;11.57;7.45;;;;;;;;;;5010526;28;20041;-59
2023/06/25 09:29:39;;;;;;;14.18;8.43;;;;;;;;;;5009985;28;20395;-59
2023/06/25 09:32:09;;;;;;;13.70;7.43;;;;;;;;;;5008298;28;20050;-60
2023/06/25 09:34:46;;;;;;;11.15;7.38;;;;;;;;;;5011065;28;20044;-58
2023/06/25 09:37:12;;;;;;;14.85;7.25;;;;;;;;;;5007978;28;20034;-59
2023/06/25 09:39:39;;;;;;;11.40;7.40;;;;;;;;;;5010287;28;20054;-58
2023/06/25 09:42:06;;;;;;;13.95;7.82;;;;;;;;;;5011907;28;20034;-57
2023/06/25 09:44:35;;;;;;;13.43;7.85;;;;;;;;;;5005411;28;20042;-58
2023/06/25 09:47:07;;;;;;;13.60;8.15;;;;;;;;;;5011690;28;20053;-58
2023/06/25 09:49:33;;;;;;;16.10;8.18;;;;;;;;;;5014263;28;20467;-58
2023/06/25 09:52:08;;;;;;;12.80;8.30;;;;;;;;;;5007149;28;20045;-60
2023/06/25 09:54:35;;;;;;;12.75;8.00;;;;;;;;;;5001130;28;20502;-58
2023/06/25 09:57:05;;;;;;;13.70;8.70;;;;;;;;;;5010208;28;20053;-59
2023/06/25 09:59:31;;;;;;;12.85;7.85;;;;;;;;;;5011984;28;20038;-58
2023/06/25 10:01:58;;;;;;;15.50;8.90;;;;;;;;;;5009036;28;20030;-59
2023/06/25 10:04:24;;;;;;;13.95;8.88;;;;;;;;;;5015725;28;20045;-59
2023/06/25 10:06:50;;;;;;;14.75;8.63;;;;;;;;;;5011116;28;20399;-59
2023/06/25 10:09:16;;;;;;;16.30;8.95;;;;;;;;;;5008831;28;20041;-59
2023/06/25 10:11:54;;;;;;;13.95;8.48;;;;;;;;;;5004686;28;20626;-59
2023/06/25 10:14:21;;;;;;;15.93;8.98;;;;;;;;;;5006850;28;20042;-59
2023/06/25 10:16:55;;;;;;;17.73;9.48;;;;;;;;;;5001810;28;20057;-59
2023/06/25 10:19:23;;;;;;;17.00;9.82;;;;;;;;;;5005361;28;20439;-59
2023/06/25 10:22:07;;;;;;;17.48;9.90;;;;;;;;;;5008637;28;20029;-59
2023/06/25 10:24:40;;;;;;;15.70;8.93;;;;;;;;;;5007554;28;20045;-58
2023/06/25 10:27:07;;;;;;;14.90;8.93;;;;;;;;;;5005477;28;20507;-58
2023/06/25 10:29:40;;;;;;;17.98;10.35;;;;;;;;;;5010854;28;20407;-59
2023/06/25 10:32:06;;;;;;;71.07;33.70;;;;;;;;;;5007078;28;20559;-60
2023/06/25 10:34:39;;;;;;;51.47;25.75;;;;;;;;;;5008197;28;20056;-59
2023/06/25 10:37:07;;;;;;;16.80;10.15;;;;;;;;;;5023113;28;20034;-59
2023/06/25 10:39:40;;;;;;;17.42;10.65;;;;;;;;;;5008969;28;20032;-59
2023/06/25 10:42:07;;;;;;;16.88;10.27;;;;;;;;;;5006705;28;20570;-59
2023/06/25 10:44:34;;;;;;;16.88;9.93;;;;;;;;;;5004177;28;20046;-59
2023/06/25 10:47:08;;;;;;;17.05;9.98;;;;;;;;;;5004844;28;20034;-58
2023/06/25 10:49:35;;;;;;;16.92;10.70;;;;;;;;;;5008726;28;20046;-58
2023/06/25 10:52:03;;;;;;;24.20;12.60;;;;;;;;;;5006103;28;20053;-58
2023/06/25 10:54:33;;;;;;;16.45;10.40;;;;;;;;;;5008082;28;20042;-58
2023/06/25 10:57:13;;;;;;;18.27;9.95;;;;;;;;;;5008750;28;20049;-59
2023/06/25 10:59:40;;;;;;;18.08;10.85;;;;;;;;;;4996609;28;20049;-59
2023/06/25 11:02:15;;;;;;;19.45;10.27;;;;;;;;;;5009966;28;20029;-58
2023/06/25 11:04:42;;;;;;;18.10;10.45;;;;;;;;;;5009216;28;20057;-59
2023/06/25 11:07:11;;;;;;;19.48;10.27;;;;;;;;;;5006752;28;20682;-59
2023/06/25 11:09:38;;;;;;;16.63;10.02;;;;;;;;;;5012001;28;20081;-59
2023/06/25 11:12:05;;;;;;;18.00;10.52;;;;;;;;;;5010659;28;20046;-59
2023/06/25 11:14:33;;;;;;;16.92;10.30;;;;;;;;;;5008392;28;20046;-59
2023/06/25 11:16:59;;;;;;;20.40;10.05;;;;;;;;;;5011524;28;20048;-58
2023/06/25 11:19:26;;;;;;;19.60;11.20;;;;;;;;;;5007970;28;20053;-58
2023/06/25 11:21:52;;;;;;;18.75;10.77;;;;;;;;;;5005462;28;20038;-59
2023/06/25 11:24:19;;;;;;;23.83;10.75;;;;;;;;;;5006287;28;20048;-59
2023/06/25 11:26:45;;;;;;;20.80;10.63;;;;;;;;;;5005749;28;20033;-59
2023/06/25 11:29:12;;;;;;;16.25;9.95;;;;;;;;;;5001578;28;20041;-58
2023/06/25 11:31:45;;;;;;;20.92;11.73;;;;;;;;;;5010066;28;20052;-59
2023/06/25 11:34:23;;;;;;;21.33;12.15;;;;;;;;;;5008813;28;20052;-60
2023/06/25 11:36:49;;;;;;;17.20;10.80;;;;;;;;;;5004502;28;20057;-58
2023/06/25 11:39:16;;;;;;;17.35;10.23;;;;;;;;;;5008409;28;20487;-58
2023/06/25 11:41:45;;;;;;;18.60;11.32;;;;;;;;;;5006797;28;20041;-59
2023/06/25 11:44:17;;;;;;;17.27;10.70;;;;;;;;;;5006988;28;20483;-58
2023/06/25 11:46:53;;;;;;;17.23;9.75;;;;;;;;;;5011910;28;20534;-59
2023/06/25 11:49:19;;;;;;;19.30;10.93;;;;;;;;;;5015046;28;20037;-59
2023/06/25 11:51:45;;;;;;;18.77;10.75;;;;;;;;;;5012338;28;20042;-59
2023/06/25 11:54:11;;;;;;;21.25;11.48;;;;;;;;;;5015135;28;20025;-59
2023/06/25 11:56:37;;;;;;;19.00;10.48;;;;;;;;;;5013273;28;20037;-59
2023/06/25 11:59:03;;;;;;;17.13;10.30;;;;;;;;;;5013070;28;20479;-60
2023/06/25 12:01:30;;;;;;;19.23;11.20;;;;;;;;;;5013485;28;20029;-59
2023/06/25 12:03:56;;;;;;;19.55;10.75;;;;;;;;;;5014639;28;20030;-60
2023/06/25 12:06:24;;;;;;;17.55;10.90;;;;;;;;;;5012077;28;20152;-59
2023/06/25 12:08:51;;;;;;;17.55;10.63;;;;;;;;;;5014336;28;20030;-58
2023/06/25 12:11:17;;;;;;;16.85;10.48;;;;;;;;;;5013443;28;20038;-59
2023/06/25 12:13:43;;;;;;;17.88;11.00;;;;;;;;;;5012092;28;20491;-58
2023/06/25 12:16:10;;;;;;;21.00;11.18;;;;;;;;;;5014081;28;20076;-60
2023/06/25 12:18:36;;;;;;;19.58;10.95;;;;;;;;;;5022211;28;20052;-59
2023/06/25 12:21:02;;;;;;;23.98;11.48;;;;;;;;;;5016546;28;20064;-59
2023/06/25 12:23:29;;;;;;;21.30;12.00;;;;;;;;;;5015699;28;20514;-59
2023/06/25 12:25:55;;;;;;;19.08;11.85;;;;;;;;;;5013866;28;20050;-59
2023/06/25 12:28:21;;;;;;;19.20;11.77;;;;;;;;;;5016627;28;20025;-59
2023/06/25 12:30:47;;;;;;;22.70;11.70;;;;;;;;;;5011744;28;20447;-60
2023/06/25 12:33:14;;;;;;;25.55;11.50;;;;;;;;;;5011506;28;20041;-60
2023/06/25 12:35:40;;;;;;;20.60;11.27;;;;;;;;;;5015365;28;20037;-59
2023/06/25 12:38:06;;;;;;;22.88;11.52;;;;;;;;;;5016042;28;20034;-59
2023/06/25 12:40:32;;;;;;;21.88;11.73;;;;;;;;;;5009778;28;20046;-59
2023/06/25 12:42:59;;;;;;;19.80;11.48;;;;;;;;;;5011854;28;20042;-59
2023/06/25 12:45:25;;;;;;;18.60;11.30;;;;;;;;;;5011413;28;20165;-59
2023/06/25 12:47:51;;;;;;;19.00;11.00;;;;;;;;;;5010430;28;20037;-59
2023/06/25 12:50:18;;;;;;;18.45;11.77;;;;;;;;;;5009651;28;20058;-59
2023/06/25 12:52:44;;;;;;;19.08;11.52;;;;;;;;;;5011725;28;20050;-59
2023/06/25 12:55:10;;;;;;;19.77;12.55;;;;;;;;;;5009659;28;20064;-60
2023/06/25 12:57:36;;;;;;;21.42;11.80;;;;;;;;;;5011962;28;20042;-59
2023/06/25 13:00:05;;;;;;;19.25;11.20;;;;;;;;;;5007791;28;20101;-59
2023/06/25 13:02:32;;;;;;;19.85;11.65;;;;;;;;;;5008034;28;20050;-60
2023/06/25 13:04:59;;;;;;;17.75;11.20;;;;;;;;;;4991015;28;20415;-60
2023/06/25 13:07:26;;;;;;;19.45;11.40;;;;;;;;;;5009536;28;20408;-61
2023/06/25 13:09:52;;;;;;;17.17;11.60;;;;;;;;;;5012530;28;20451;-59
2023/06/25 13:12:18;;;;;;;22.25;11.45;;;;;;;;;;5012506;28;20539;-61
2023/06/25 13:14:44;;;;;;;17.90;11.45;;;;;;;;;;5008564;28;20423;-59
2023/06/25 13:17:11;;;;;;;19.40;11.45;;;;;;;;;;5008759;28;20049;-59
2023/06/25 13:19:38;;;;;;;19.13;11.15;;;;;;;;;;5008540;28;20050;-59
2023/06/25 13:22:05;;;;;;;20.45;11.35;;;;;;;;;;5009006;28;20049;-59
2023/06/25 13:24:31;;;;;;;17.67;11.20;;;;;;;;;;5009463;28;20050;-60
2023/06/25 13:27:01;;;;;;;20.85;11.93;;;;;;;;;;5008162;28;20041;-60
2023/06/25 13:29:28;;;;;;;19.83;11.38;;;;;;;;;;5007378;28;20542;-60
2023/06/25 13:31:54;;;;;;;18.08;11.25;;;;;;;;;;5006767;28;20399;-60
2023/06/25 13:34:21;;;;;;;19.58;11.90;;;;;;;;;;5009299;28;20052;-60
2023/06/25 13:36:47;;;;;;;17.08;10.50;;;;;;;;;;5007609;28;20050;-60
2023/06/25 13:39:13;;;;;;;18.83;11.23;;;;;;;;;;5009474;28;20057;-60
2023/06/25 13:41:39;;;;;;;17.30;10.98;;;;;;;;;;5010240;28;20046;-60
2023/06/25 13:44:05;;;;;;;17.65;11.18;;;;;;;;;;5008719;28;20042;-60
2023/06/25 13:46:31;;;;;;;15.38;9.60;;;;;;;;;;5007989;28;20065;-60
2023/06/25 13:48:57;;;;;;;19.83;11.43;;;;;;;;;;5008952;28;20106;-60
2023/06/25 13:51:23;;;;;;;17.48;10.90;;;;;;;;;;5005296;28;20058;-60
2023/06/25 13:53:50;;;;;;;16.50;10.38;;;;;;;;;;5009020;28;20034;-60
2023/06/25 13:56:16;;;;;;;17.73;10.50;;;;;;;;;;5007673;28;20089;-60
2023/06/25 13:58:42;;;;;;;18.13;10.50;;;;;;;;;;5007485;28;20042;-59
2023/06/25 14:01:08;;;;;;;16.95;10.00;;;;;;;;;;5006231;28;20046;-60
2023/06/25 14:03:34;;;;;;;17.00;10.38;;;;;;;;;;5002499;28;20037;-61
2023/06/25 14:06:00;;;;;;;16.80;10.10;;;;;;;;;;5005753;28;20415;-60
2023/06/25 14:08:27;;;;;;;17.75;10.20;;;;;;;;;;5010268;28;20029;-59
2023/06/25 14:10:53;;;;;;;17.50;10.55;;;;;;;;;;5006718;28;20049;-59
2023/06/25 14:13:20;;;;;;;16.60;10.23;;;;;;;;;;5024902;28;20034;-59
2023/06/25 14:15:49;;;;;;;18.37;10.67;;;;;;;;;;5006949;28;20042;-60
2023/06/25 14:18:15;;;;;;;17.40;10.60;;;;;;;;;;5008303;28;20053;-60
2023/06/25 14:20:42;;;;;;;17.70;10.25;;;;;;;;;;5004537;28;20065;-59
2023/06/25 14:23:08;;;;;;;18.23;10.77;;;;;;;;;;5006664;28;20054;-59
2023/06/25 14:25:34;;;;;;;15.65;10.27;;;;;;;;;;5006929;28;20037;-59